ADDS METAR Data INFO
IDs: Format: Raw Decoded Include TAF

Data at: 2309 UTC 16 Jan 2018

KTUP 162253Z 31009KT 10SM CLR M07/M16 A3059 RMK AO2 SLP361 T10721156
KTUP 162153Z 32009KT 10SM CLR M06/M14 A3059 RMK AO2 SLP361 T10611139
KTUP 162053Z 33007KT 10SM SCT120 M06/M13 A3059 RMK AO2 SLP363 60000 T10611133 55008
KTUP 162032Z 30009KT 10SM SCT024 OVC120 M07/M13 A3059 RMK AO2 T10671133
KTUP 161953Z 31007KT 10SM OVC024 M07/M13 A3059 RMK AO2 SLP363 T10721128
KTUP 161910Z 31008KT 10SM BKN022 OVC055 M07/M12 A3060 RMK AO2 T10721122
KTUP 161853Z 33010KT 10SM FEW022 OVC055 M07/M12 A3060 RMK AO2 SNE08 SLP365 P0000 T10721122
KTUP 161836Z 32011KT 10SM FEW020 OVC055 M07/M13 A3061 RMK AO2 SNE08 P0000 T10721128
KTUP 161753Z 32010KT 6SM -SN BKN016 BKN026 OVC055 M08/M12 A3062 RMK AO2 SLP372 P0000 60003 I6000 T10781117 11050 21083 50003
KTUP 161727Z 33012KT 2SM -SN BKN025 OVC034 M08/M12 A3062 RMK AO2 P0000 T10831117
KTUP 161653Z 33013KT 1SM -SN FEW013 BKN019 OVC027 M08/M11 A3064 RMK AO2 SLP377 P0001 T10831111
KTUP 161604Z 33014G19KT 1 3/4SM -SN FEW013 BKN026 OVC048 M08/M12 A3064 RMK AO2 P0000 T10781117
KTUP 161553Z 32012KT 2SM -SN FEW013 BKN033 OVC048 M08/M11 A3064 RMK AO2 SLP380 P0000 T10781111
KTUP 161542Z 31011KT 2SM -SN FEW015 BKN035 OVC048 M07/M11 A3063 RMK AO2 P0000 T10721106
KTUP 161529Z 32012KT 1 3/4SM -SN FEW016 BKN030 OVC040 M08/M11 A3063 RMK AO2 P0000 T10781111
KTUP 161524Z 32016KT 2SM -SN FEW016 BKN026 OVC036 M08/M11 A3063 RMK AO2 P0000 T10781106
KTUP 161513Z 32012KT 1 3/4SM -SN SCT016 BKN027 OVC040 M07/M10 A3063 RMK AO2 P0000 T10721100
KTUP 161500Z 33012KT 2 1/2SM -SN BKN029 BKN039 OVC048 M07/M11 A3061 RMK AO2 P0000 T10721106
KTUP 161453Z 33013KT 3SM -SN FEW014 BKN034 OVC055 M07/M10 A3061 RMK AO2 SLP369 P0001 60002 I3000 T10721100 51025
KTUP 161438Z 33013KT 2 1/2SM -SN FEW015 BKN033 OVC055 M07/M10 A3060 RMK AO2 P0001 T10671100
KTUP 161427Z 32012KT 2SM -SN BKN029 BKN040 OVC055 M07/M10 A3061 RMK AO2 P0001 T10671100
KTUP 161403Z 31011KT 2 1/2SM -SN FEW011 BKN030 OVC043 M07/M09 A3060 RMK AO2 P0000 T10671094
KTUP 161353Z 31011KT 1 3/4SM -SN BR FEW012 BKN032 OVC043 M07/M09 A3059 RMK AO2 SLP361 P0001 T10671089
KTUP 161334Z 32011KT 1 3/4SM -SN FEW012 BKN032 OVC049 M06/M09 A3058 RMK AO2 P0000 T10611089
KTUP 161329Z 32012KT 2 1/2SM -SN BR SCT012 BKN018 OVC050 M06/M08 A3058 RMK AO2 P0000 T10611083
KTUP 161253Z 32012KT 8SM -SN OVC013 M05/M08 A3057 RMK AO2 SNB53 SLP353 P0000 I1000 T10501078
KTUP 161153Z AUTO 32011KT 9SM BKN014 OVC019 M04/M07 A3054 RMK AO2 SLP342 T10391067 10017 21039 51026
KTUP 161134Z AUTO 34012KT 9SM BKN014 OVC065 M03/M07 A3053 RMK AO2 T10331067
KTUP 161053Z AUTO 33015G24KT 10SM FEW022 SCT044 OVC065 M03/M08 A3051 RMK AO2 SLP334 T10281078
KTUP 161037Z AUTO 33014G24KT 10SM SCT020 BKN043 OVC060 M02/M08 A3052 RMK AO2 T10221078
KTUP 160953Z AUTO 33014KT 10SM OVC017 M02/M06 A3048 RMK AO2 SLP323 T10171056
KTUP 160853Z AUTO 33013KT 10SM OVC015 M01/M05 A3046 RMK AO2 SLP315 T10111050 50009
KTUP 160753Z AUTO 33014KT 10SM OVC017 00/M04 A3046 RMK AO2 SLP315 T00001039
KTUP 160653Z AUTO 33012KT 10SM BKN018 OVC060 01/M03 A3043 RMK AO2 SLP305 T00111028
KTUP 160645Z AUTO 33014G21KT 10SM BKN018 OVC060 01/M03 A3043 RMK AO2 T00111028
KTUP 160553Z AUTO 34014G21KT 10SM FEW018 OVC060 02/M03 A3043 RMK AO2 SLP305 T00171028 10078 20011 401171050 51008
KTUP 160453Z AUTO 33010KT 10SM OVC060 02/M03 A3043 RMK AO2 SLP305 T00221028
KTUP 160353Z AUTO 34008KT 10SM OVC055 02/M03 A3042 RMK AO2 SLP303 T00221028
KTUP 160253Z 33012KT 10SM FEW055 FEW085 03/M03 A3041 RMK AO2 SLP298 T00281033 53015
KTUP 160153Z 00000KT 10SM CLR 02/M03 A3036 RMK AO2 SLP283 T00221033
KTUP 160053Z 00000KT 10SM CLR 04/M04 A3036 RMK AO2 SLP284 T00441039
KTUP 152353Z 00000KT 10SM CLR 08/M05 A3036 RMK AO2 SLP283 T00781050 10117 20078 53005
KTUP 152253Z 22005KT 10SM CLR 09/M05 A3034 RMK AO2 SLP276 T00941050
KTUP 152153Z 20007KT 10SM CLR 11/M06 A3034 RMK AO2 SLP277 T01061056
KTUP 152053Z 22009KT 10SM CLR 11/M06 A3035 RMK AO2 SLP278 T01111056 56018
KTUP 151953Z 22009KT 10SM CLR 11/M05 A3035 RMK AO2 SLP278 T01111050
KTUP 151853Z 19006G14KT 10SM CLR 11/M06 A3036 RMK AO2 SLP284 T01061056
KTUP 151753Z 17007KT 10SM CLR 09/M06 A3040 RMK AO2 SLP296 T00941056 10094 21039 58007
KTUP 151653Z 17007KT 10SM CLR 07/M06 A3044 RMK AO2 SLP308 T00721061
KTUP 151553Z 17007KT 10SM CLR 04/M06 A3045 RMK AO2 SLP313 T00391056
KTUP 151453Z 16010KT 10SM CLR 01/M05 A3042 RMK AO2 SLP304 T00061050 50007
KTUP 151353Z 16004KT 10SM CLR M02/M05 A3043 RMK AO2 SLP306 T10221050
KTUP 151253Z 00000KT 10SM CLR M03/M07 A3042 RMK AO2 SLP302 T10331067
KTUP 151153Z 16005KT 10SM CLR M03/M06 A3040 RMK AO2 SLP297 T10331061 11006 21050 58008